Flood From: 21-02-2018 18:00 Until: 22-02-2018 16:00 warning for: Flood Level: Yellow info button

Although rather usual in this region, locally or potentially dangerous phenomena are expected. (such as local winds, summer thunderstorms, rising streams or high waves) Be aware and pay attention to the latest weather updates, especially if you carry out activities exposed to weather or close to a stream or shoreline. 


Meteo18 Weather Cam more information Meteo18 Weather Cam


Thunder radar more information blitzortung!


Rain radar more information rain snow radar


Visit our other weather sites:

Template documentation
and downloads

And another site



Weather Underground History page Text

Daily Summary for December 16, 2017 Units:  English    Metric   Both
« Previous Day
Next Day »
Daily Weekly Monthly Yearly Custom
  High: Low: Average:
Temperature: TemperatureC °F 1.4 °F 3.3 °F
Dew Point: DewpointC °F 0.1 °F 1.7 °F
Humidity: Humidity % 79 % 89 %
Wind Speed: WindSpeedKMH mph 0.0 mph 7.1 mph
Wind Gust: WindSpeedGustKMH mph - -
Wind:- - WNW
Pressure: PressurehPa in 1007.0 in -
Precipitation: 2.3 in    
Historical Graphs
 
 
Tabular Data for December 16, 2017
Time Temperature Dew Point Pressure Wind Wind Speed Wind Gust Humidity Rainfall Rate (Hourly)
TemperatureC °F DewpointC °F PressurehPa in Calm     Humidity % HourlyPrecipMM in
00:02 3.1 °F 1.9 °F 1007.0 in Calm   22.5 mph 92 % 0.5 in
00:07 3.1 °F 1.9 °F 1007.0 in WNW 8.0 mph 22.5 mph 92 % 0.5 in
00:12 3.2 °F 2.0 °F 1007.0 in NW 4.8 mph 16.1 mph 92 % 0.5 in
00:17 3.2 °F 2.2 °F 1007.0 in WNW 9.7 mph 16.1 mph 93 % 0.5 in
00:22 3.3 °F 2.1 °F 1007.0 in WNW 6.4 mph 16.1 mph 92 % 0.5 in
00:32 3.3 °F 2.1 °F 1007.0 in WNW 12.9 mph 25.7 mph 92 % 0.5 in
00:42 3.2 °F 2.0 °F 1007.0 in NNW 6.4 mph 17.7 mph 92 % 0.5 in
00:47 3.2 °F 2.0 °F 1007.0 in WNW 12.9 mph 17.7 mph 92 % 0.5 in
00:57 3.3 °F 2.1 °F 1007.3 in West 6.4 mph 29.0 mph 92 % 0.3 in
01:02 3.3 °F 2.1 °F 1007.3 in NW 12.9 mph 29.0 mph 92 % 0.3 in
01:07 3.3 °F 2.1 °F 1007.3 in NW 9.7 mph 29.0 mph 92 % 0.5 in
01:12 3.2 °F 2.0 °F 1007.3 in WNW 6.4 mph 29.0 mph 92 % 0.8 in
01:17 3.2 °F 2.2 °F 1007.3 in WNW 12.9 mph 29.0 mph 93 % 0.8 in
01:22 3.3 °F 2.3 °F 1007.7 in West 9.7 mph 25.7 mph 93 % 0.8 in
01:27 3.3 °F 2.3 °F 1007.7 in WNW 12.9 mph 25.7 mph 93 % 1.0 in
01:32 3.3 °F 2.3 °F 1007.7 in WNW 11.3 mph 25.7 mph 93 % 1.0 in
01:42 3.1 °F 1.9 °F 1007.7 in NW 4.8 mph 38.6 mph 92 % 1.0 in
01:47 3.1 °F 2.1 °F 1008.0 in NW 8.0 mph 38.6 mph 93 % 1.0 in
01:52 3.2 °F 2.2 °F 1008.0 in WNW 19.3 mph 29.0 mph 93 % 1.0 in
02:02 3.2 °F 2.2 °F 1008.0 in NNW 3.2 mph 29.0 mph 93 % 1.0 in
02:12 3.3 °F 2.3 °F 1008.4 in WNW 4.8 mph 25.7 mph 93 % 0.5 in
02:22 3.3 °F 2.3 °F 1008.4 in WSW 4.8 mph 22.5 mph 93 % 0.8 in
02:27 3.3 °F 2.3 °F 1008.7 in WNW 11.3 mph 22.5 mph 93 % 0.5 in
02:32 3.4 °F 2.4 °F 1008.7 in WNW 16.1 mph 22.5 mph 93 % 0.5 in
02:37 3.4 °F 2.4 °F 1008.7 in NNW 3.2 mph 17.7 mph 93 % 0.5 in
02:42 3.4 °F 2.4 °F 1008.7 in NNW 9.7 mph 17.7 mph 93 % 0.5 in
02:47 3.5 °F 2.5 °F 1008.7 in WNW 9.7 mph 19.3 mph 93 % 0.5 in
02:52 3.5 °F 2.5 °F 1009.0 in NW 12.9 mph 24.1 mph 93 % 0.5 in
02:57 3.5 °F 2.5 °F 1009.0 in NNW 6.4 mph 24.1 mph 93 % 0.3 in
03:02 3.5 °F 2.5 °F 1009.0 in West 9.7 mph 24.1 mph 93 % 0.5 in
03:07 3.5 °F 2.5 °F 1009.0 in NNW 9.7 mph 24.1 mph 93 % 0.5 in
03:12 3.5 °F 2.5 °F 1009.4 in NW 17.7 mph 24.1 mph 93 % 0.5 in
03:17 3.6 °F 2.4 °F 1009.4 in WNW 9.7 mph 24.1 mph 92 % 0.5 in
03:22 3.5 °F 2.3 °F 1009.4 in NW 12.9 mph 22.5 mph 92 % 0.3 in
03:27 3.5 °F 2.3 °F 1009.4 in NW 12.9 mph 22.5 mph 92 % 0.3 in
03:32 3.5 °F 2.3 °F 1009.7 in WNW 9.7 mph 22.5 mph 92 % 0.3 in
03:37 3.6 °F 2.4 °F 1009.7 in NNW 6.4 mph 17.7 mph 92 % 0.3 in
03:42 3.6 °F 2.4 °F 1009.7 in NW 12.9 mph 22.5 mph 92 % 0.3 in
03:47 3.7 °F 2.5 °F 1010.0 in NW 3.2 mph 22.5 mph 92 % 0.3 in
03:52 3.7 °F 2.5 °F 1009.7 in NNW 6.4 mph 22.5 mph 92 % 0.3 in
03:57 3.7 °F 2.4 °F 1010.0 in NNW 16.1 mph 27.4 mph 91 % 0.3 in
04:02 3.8 °F 2.5 °F 1010.0 in North 9.7 mph 27.4 mph 91 % 0.0 in
04:17 3.8 °F 2.3 °F 1010.0 in WNW 3.2 mph 20.9 mph 90 % 0.0 in
04:22 3.7 °F 2.2 °F 1010.4 in NW 6.4 mph 20.9 mph 90 % 0.0 in
04:27 3.6 °F 2.1 °F 1010.4 in WNW 6.4 mph 20.9 mph 90 % 0.0 in
04:32 3.6 °F 2.3 °F 1010.7 in WNW 4.8 mph 20.9 mph 91 % 0.0 in
04:37 3.6 °F 2.3 °F 1010.7 in NNW 16.1 mph 16.1 mph 91 % 0.0 in
04:42 3.7 °F 2.4 °F 1010.7 in WNW 14.5 mph 24.1 mph 91 % 0.0 in
04:47 3.8 °F 2.5 °F 1010.7 in WNW 9.7 mph 24.1 mph 91 % 0.0 in
04:52 3.8 °F 2.5 °F 1011.1 in West 6.4 mph 24.1 mph 91 % 0.0 in
04:57 3.8 °F 2.5 °F 1011.1 in WNW 11.3 mph 22.5 mph 91 % 0.0 in
05:02 3.8 °F 2.5 °F 1011.1 in WNW 9.7 mph 22.5 mph 91 % 0.0 in
05:12 3.7 °F 2.4 °F 1011.4 in NW 12.9 mph 20.9 mph 91 % 0.0 in
05:17 3.6 °F 2.3 °F 1011.4 in NW 4.8 mph 22.5 mph 91 % 0.0 in
05:22 3.6 °F 2.4 °F 1011.4 in NW 8.0 mph 22.5 mph 92 % 0.0 in
05:27 3.6 °F 2.4 °F 1011.7 in West 12.9 mph 22.5 mph 92 % 0.0 in
05:32 3.6 °F 2.4 °F 1011.7 in NW 9.7 mph 22.5 mph 92 % 0.0 in
05:37 3.6 °F 2.4 °F 1011.7 in NNW 6.4 mph 19.3 mph 92 % 0.0 in
05:42 3.6 °F 2.4 °F 1011.7 in NW 6.4 mph 19.3 mph 92 % 0.0 in
05:52 3.6 °F 2.4 °F 1011.7 in NNW 6.4 mph 20.9 mph 92 % 0.0 in
05:57 3.6 °F 2.4 °F 1012.1 in WNW 9.7 mph 20.9 mph 92 % 0.0 in
06:02 3.5 °F 2.3 °F 1012.1 in NNW 11.3 mph 20.9 mph 92 % 0.0 in
06:07 3.5 °F 2.5 °F 1012.1 in NNW 9.7 mph 17.7 mph 93 % 0.3 in
06:17 3.5 °F 2.5 °F 1012.1 in WNW 11.3 mph 22.5 mph 93 % 0.3 in
06:22 3.5 °F 2.3 °F 1012.1 in NNW 6.4 mph 22.5 mph 92 % 0.3 in
06:32 3.4 °F 2.2 °F 1012.4 in WNW 14.5 mph 22.5 mph 92 % 0.3 in
06:37 3.4 °F 2.2 °F 1012.8 in WNW 12.9 mph 22.5 mph 92 % 0.3 in
06:42 3.4 °F 2.2 °F 1012.8 in NW 14.5 mph 22.5 mph 92 % 0.3 in
06:52 3.4 °F 2.2 °F 1012.8 in WNW 11.3 mph 19.3 mph 92 % 0.3 in
07:02 3.4 °F 2.2 °F 1012.8 in WNW 19.3 mph 19.3 mph 92 % 0.3 in
07:12 3.6 °F 2.3 °F 1013.1 in NW 6.4 mph 25.7 mph 91 % 0.0 in
07:17 3.6 °F 2.3 °F 1013.1 in NNW 14.5 mph 25.7 mph 91 % 0.0 in
07:22 3.6 °F 2.3 °F 1013.1 in WSW 3.2 mph 20.9 mph 91 % 0.0 in
07:27 3.6 °F 2.3 °F 1013.1 in West 11.3 mph 20.9 mph 91 % 0.0 in
07:32 3.5 °F 2.2 °F 1013.1 in NW 16.1 mph 20.9 mph 91 % 0.0 in
07:37 3.5 °F 2.2 °F 1013.4 in WNW 9.7 mph 19.3 mph 91 % 0.0 in
07:42 3.5 °F 2.2 °F 1013.4 in WNW 12.9 mph 19.3 mph 91 % 0.0 in
07:47 3.5 °F 2.2 °F 1013.8 in NNW 6.4 mph 20.9 mph 91 % 0.0 in
07:52 3.6 °F 2.3 °F 1013.8 in NW 6.4 mph 20.9 mph 91 % 0.0 in
07:57 3.6 °F 2.3 °F 1013.8 in NW 8.0 mph 24.1 mph 91 % 0.0 in
08:02 3.6 °F 2.3 °F 1013.8 in WNW 6.4 mph 24.1 mph 91 % 0.0 in
08:07 3.6 °F 2.3 °F 1013.8 in WNW 6.4 mph 20.9 mph 91 % 0.0 in
08:12 3.6 °F 2.3 °F 1013.8 in NW 9.7 mph 20.9 mph 91 % 0.0 in
08:17 3.6 °F 2.3 °F 1013.8 in NW 9.7 mph 22.5 mph 91 % 0.0 in
08:27 3.6 °F 2.3 °F 1014.1 in WNW 11.3 mph 22.5 mph 91 % 0.0 in
08:32 3.5 °F 2.2 °F 1014.1 in NW 8.0 mph 22.5 mph 91 % 0.0 in
08:42 3.5 °F 2.2 °F 1014.4 in NW 4.8 mph 17.7 mph 91 % 0.0 in
08:47 3.5 °F 2.2 °F 1014.4 in WNW 3.2 mph 19.3 mph 91 % 0.0 in
08:52 3.5 °F 2.3 °F 1014.8 in WNW 11.3 mph 19.3 mph 92 % 0.0 in
09:02 3.4 °F 2.2 °F 1015.1 in WNW 6.4 mph 19.3 mph 92 % 0.0 in
09:12 3.4 °F 2.2 °F 1015.1 in NNW 4.8 mph 20.9 mph 92 % 0.0 in
09:17 3.4 °F 2.2 °F 1015.1 in WNW 11.3 mph 19.3 mph 92 % 0.0 in
09:22 3.4 °F 2.2 °F 1015.5 in WNW 11.3 mph 19.3 mph 92 % 0.0 in
09:32 3.5 °F 2.3 °F 1015.5 in WNW 6.4 mph 17.7 mph 92 % 0.0 in
09:42 3.5 °F 2.2 °F 1015.8 in NW 8.0 mph 17.7 mph 91 % 0.0 in
09:52 3.5 °F 2.2 °F 1016.1 in NNW 4.8 mph 25.7 mph 91 % 0.0 in
09:57 3.5 °F 2.2 °F 1016.1 in WNW 9.7 mph 24.1 mph 91 % 0.0 in
10:02 3.5 °F 2.2 °F 1016.1 in WNW 8.0 mph 24.1 mph 91 % 0.0 in
10:07 3.5 °F 2.2 °F 1016.1 in North 4.8 mph 19.3 mph 91 % 0.0 in
10:12 3.5 °F 2.2 °F 1016.5 in WNW 6.4 mph 19.3 mph 91 % 0.0 in
10:22 3.6 °F 2.3 °F 1016.5 in West 4.8 mph 17.7 mph 91 % 0.0 in
10:27 3.6 °F 2.3 °F 1016.8 in WNW 8.0 mph 20.9 mph 91 % 0.0 in
10:32 3.7 °F 2.4 °F 1016.8 in NW 4.8 mph 20.9 mph 91 % 0.0 in
10:42 3.7 °F 2.2 °F 1017.2 in West 3.2 mph 19.3 mph 90 % 0.0 in
10:52 3.8 °F 2.3 °F 1017.2 in NW 9.7 mph 17.7 mph 90 % 0.0 in
11:02 3.9 °F 2.4 °F 1017.5 in NW 9.7 mph 19.3 mph 90 % 0.0 in
11:07 4.1 °F 2.6 °F 1017.5 in NW 8.0 mph 16.1 mph 90 % 0.0 in
11:12 4.0 °F 2.4 °F 1017.8 in NW 9.7 mph 16.1 mph 89 % 0.0 in
11:17 4.0 °F 2.4 °F 1017.8 in NW 9.7 mph 16.1 mph 89 % 0.0 in
11:27 3.8 °F 2.2 °F 1017.8 in WNW 6.4 mph 20.9 mph 89 % 0.0 in
11:32 3.8 °F 2.2 °F 1017.8 in NW 11.3 mph 20.9 mph 89 % 0.0 in
11:42 3.8 °F 2.2 °F 1017.8 in NNW 11.3 mph 20.9 mph 89 % 0.0 in
11:52 3.9 °F 2.3 °F 1017.8 in NNW 9.7 mph 24.1 mph 89 % 0.0 in
12:02 4.1 °F 2.3 °F 1018.2 in NNW 9.7 mph 24.1 mph 88 % 0.0 in
12:12 4.2 °F 2.2 °F 1018.2 in NW 9.7 mph 17.7 mph 87 % 0.0 in
12:17 4.2 °F 2.4 °F 1018.2 in NNW 3.2 mph 20.9 mph 88 % 0.0 in
12:22 4.3 °F 2.5 °F 1018.2 in WNW 9.7 mph 20.9 mph 88 % 0.0 in
12:27 4.3 °F 2.3 °F 1018.2 in NNW 11.3 mph 20.9 mph 87 % 0.0 in
12:32 4.5 °F 2.5 °F 1018.2 in NNW 3.2 mph 20.9 mph 87 % 0.0 in
12:37 4.6 °F 2.6 °F 1018.2 in North 9.7 mph 17.7 mph 87 % 0.0 in
12:42 4.7 °F 2.7 °F 1018.5 in NNW 6.4 mph 17.7 mph 87 % 0.0 in
12:47 4.6 °F 2.5 °F 1018.5 in NW 3.2 mph 17.7 mph 86 % 0.0 in
12:52 4.6 °F 2.6 °F 1018.5 in NNW 4.8 mph 17.7 mph 87 % 0.0 in
13:02 4.5 °F 2.4 °F 1018.5 in North 3.2 mph 12.9 mph 86 % 0.0 in
13:12 4.4 °F 2.1 °F 1018.5 in NNW 4.8 mph 17.7 mph 85 % 0.0 in
13:17 4.4 °F 2.1 °F 1018.5 in North 4.8 mph 20.9 mph 85 % 0.0 in
13:22 4.4 °F 2.1 °F 1018.5 in NNW 8.0 mph 20.9 mph 85 % 0.0 in
13:32 4.4 °F 2.1 °F 1018.8 in North 1.6 mph 17.7 mph 85 % 0.0 in
13:37 4.4 °F 2.1 °F 1018.8 in NNE 8.0 mph 17.7 mph 85 % 0.0 in
13:42 4.4 °F 2.1 °F 1018.8 in NNW 6.4 mph 17.7 mph 85 % 0.0 in
13:52 4.4 °F 2.1 °F 1018.8 in North 4.8 mph 9.7 mph 85 % 0.0 in
13:57 4.4 °F 2.1 °F 1018.8 in NW 4.8 mph 11.3 mph 85 % 0.0 in
14:02 4.4 °F 2.3 °F 1018.8 in NW 3.2 mph 11.3 mph 86 % 0.0 in
14:12 3.9 °F 2.1 °F 1018.8 in WNW 6.4 mph 12.9 mph 88 % 0.0 in
14:17 3.8 °F 2.2 °F 1018.8 in NW 3.2 mph 20.9 mph 89 % 0.3 in
14:22 3.9 °F 2.4 °F 1019.2 in NW 1.6 mph 12.9 mph 90 % 0.3 in
14:32 4.0 °F 2.2 °F 1018.8 in NW 4.8 mph 12.9 mph 88 % 0.3 in
14:42 3.8 °F 2.0 °F 1019.2 in North 4.8 mph 16.1 mph 88 % 0.3 in
14:47 3.9 °F 2.3 °F 1019.2 in North 1.6 mph 16.1 mph 89 % 0.3 in
14:52 3.9 °F 2.3 °F 1019.2 in North 1.6 mph 8.0 mph 89 % 0.3 in
14:57 3.9 °F 2.3 °F 1019.2 in Calm   6.4 mph 89 % 0.3 in
15:02 4.0 °F 2.5 °F 1019.2 in NW 12.9 mph 12.9 mph 90 % 0.3 in
15:12 3.7 °F 1.9 °F 1019.5 in WNW 6.4 mph 22.5 mph 88 % 0.0 in
15:17 3.7 °F 2.1 °F 1019.5 in WNW 9.7 mph 22.5 mph 89 % 0.0 in
15:22 3.9 °F 2.3 °F 1019.5 in WNW 4.8 mph 14.5 mph 89 % 0.0 in
15:32 4.3 °F 2.6 °F 1019.5 in WNW 1.6 mph 11.3 mph 89 % 0.0 in
15:37 4.4 °F 2.6 °F 1019.9 in NW 3.2 mph 11.3 mph 88 % 0.0 in
15:42 4.6 °F 2.6 °F 1019.9 in WNW 8.0 mph 11.3 mph 87 % 0.0 in
15:47 4.7 °F 2.6 °F 1019.9 in WNW 8.0 mph 11.3 mph 86 % 0.0 in
15:52 4.7 °F 2.6 °F 1019.9 in WNW 6.4 mph 11.3 mph 86 % 0.0 in
15:57 4.8 °F 2.0 °F 1019.9 in WNW 8.0 mph 16.1 mph 82 % 0.0 in
16:02 4.8 °F 1.8 °F 1019.9 in NW 9.7 mph 16.1 mph 81 % 0.0 in
16:12 4.7 °F 1.4 °F 1019.9 in WNW 3.2 mph 19.3 mph 79 % 0.0 in
16:17 4.6 °F 1.4 °F 1020.2 in West 9.7 mph 14.5 mph 80 % 0.0 in
16:22 4.5 °F 1.4 °F 1020.2 in WNW 4.8 mph 14.5 mph 80 % 0.0 in
16:27 4.6 °F 1.6 °F 1020.2 in NW 3.2 mph 14.5 mph 81 % 0.0 in
16:37 4.6 °F 1.4 °F 1020.5 in NW 4.8 mph 9.7 mph 80 % 0.0 in
16:42 4.5 °F 1.4 °F 1020.5 in WNW 6.4 mph 9.7 mph 80 % 0.0 in
16:52 4.3 °F 1.3 °F 1020.5 in NW 6.4 mph 9.7 mph 81 % 0.0 in
16:57 4.2 °F 1.2 °F 1020.5 in Calm   9.7 mph 81 % 0.0 in
17:02 4.0 °F 1.2 °F 1020.9 in NW 3.2 mph 8.0 mph 82 % 0.0 in
17:07 3.9 °F 1.1 °F 1020.9 in WNW 1.6 mph 8.0 mph 82 % 0.0 in
17:17 3.6 °F 1.0 °F 1020.9 in Calm   4.8 mph 83 % 0.0 in
17:22 3.4 °F 1.0 °F 1021.2 in WNW 1.6 mph 4.8 mph 84 % 0.0 in
17:27 3.2 °F 0.9 °F 1021.2 in WNW 3.2 mph 4.8 mph 85 % 0.0 in
17:37 3.2 °F 0.8 °F 1021.2 in WNW 4.8 mph 9.7 mph 84 % 0.0 in
17:42 3.1 °F 0.7 °F 1021.2 in Calm   9.7 mph 84 % 0.0 in
17:52 3.0 °F 0.7 °F 1021.6 in WNW 1.6 mph 6.4 mph 85 % 0.0 in
18:02 2.9 °F 0.6 °F 1021.6 in NW 4.8 mph 6.4 mph 85 % 0.0 in
18:07 2.8 °F 0.7 °F 1021.6 in WNW 3.2 mph 8.0 mph 86 % 0.0 in
18:17 2.6 °F 0.7 °F 1021.9 in NW 3.2 mph 8.0 mph 87 % 0.0 in
18:22 2.6 °F 0.7 °F 1021.9 in WNW 4.8 mph 6.4 mph 87 % 0.0 in
18:32 2.6 °F 0.7 °F 1021.9 in NW 8.0 mph 8.0 mph 87 % 0.0 in
18:37 2.6 °F 0.7 °F 1021.9 in WNW 4.8 mph 9.7 mph 87 % 0.0 in
18:42 2.6 °F 0.7 °F 1021.9 in WNW 3.2 mph 11.3 mph 87 % 0.0 in
18:47 2.5 °F 0.6 °F 1021.9 in WNW 4.8 mph 11.3 mph 87 % 0.0 in
18:52 2.4 °F 0.6 °F 1022.2 in WNW 1.6 mph 9.7 mph 88 % 0.0 in
18:57 2.4 °F 0.6 °F 1022.2 in NW 4.8 mph 9.7 mph 88 % 0.0 in
19:02 2.3 °F 0.5 °F 1022.2 in NW 4.8 mph 9.7 mph 88 % 0.0 in
19:07 2.3 °F 0.7 °F 1022.2 in NW 1.6 mph 9.7 mph 89 % 0.0 in
19:12 2.3 °F 0.7 °F 1022.2 in West 1.6 mph 8.0 mph 89 % 0.0 in
19:22 2.4 °F 0.8 °F 1022.6 in WNW 3.2 mph 12.9 mph 89 % 0.0 in
19:32 2.4 °F 0.8 °F 1022.6 in WNW 14.5 mph 14.5 mph 89 % 0.0 in
19:37 2.3 °F 0.7 °F 1022.6 in WNW 8.0 mph 17.7 mph 89 % 0.0 in
19:42 2.3 °F 0.7 °F 1022.6 in NW 9.7 mph 17.7 mph 89 % 0.0 in
19:47 2.3 °F 0.7 °F 1022.6 in NW 11.3 mph 17.7 mph 89 % 0.0 in
19:52 2.3 °F 0.7 °F 1022.6 in WNW 11.3 mph 17.7 mph 89 % 0.0 in
19:57 2.2 °F 0.6 °F 1022.6 in WNW 4.8 mph 16.1 mph 89 % 0.0 in
20:07 2.1 °F 0.5 °F 1022.9 in West 3.2 mph 12.9 mph 89 % 0.0 in
20:12 2.1 °F 0.6 °F 1022.9 in NW 11.3 mph 14.5 mph 90 % 0.0 in
20:17 2.1 °F 0.6 °F 1022.9 in WNW 4.8 mph 14.5 mph 90 % 0.0 in
20:22 2.1 °F 0.6 °F 1023.2 in WNW 8.0 mph 14.5 mph 90 % 0.0 in
20:27 2.0 °F 0.5 °F 1023.2 in WNW 4.8 mph 14.5 mph 90 % 0.0 in
20:32 1.9 °F 0.4 °F 1023.2 in WNW 6.4 mph 14.5 mph 90 % 0.0 in
20:37 1.8 °F 0.5 °F 1023.2 in NW 8.0 mph 11.3 mph 91 % 0.0 in
20:47 1.8 °F 0.5 °F 1023.2 in NW 4.8 mph 12.9 mph 91 % 0.0 in
20:52 1.8 °F 0.5 °F 1023.6 in WNW 8.0 mph 12.9 mph 91 % 0.0 in
20:57 1.8 °F 0.5 °F 1023.6 in WNW 8.0 mph 12.9 mph 91 % 0.0 in
21:02 1.8 °F 0.5 °F 1023.9 in WNW 9.7 mph 12.9 mph 91 % 0.0 in
21:07 1.8 °F 0.5 °F 1023.9 in West 3.2 mph 14.5 mph 91 % 0.0 in
21:12 1.8 °F 0.3 °F 1023.9 in NW 6.4 mph 14.5 mph 90 % 0.0 in
21:17 1.8 °F 0.5 °F 1023.9 in WNW 9.7 mph 12.9 mph 91 % 0.0 in
21:22 1.8 °F 0.5 °F 1024.3 in West 4.8 mph 12.9 mph 91 % 0.0 in
21:27 1.9 °F 0.6 °F 1024.3 in WNW 6.4 mph 11.3 mph 91 % 0.0 in
21:32 1.9 °F 0.4 °F 1024.3 in WNW 6.4 mph 11.3 mph 90 % 0.0 in
21:42 1.8 °F 0.3 °F 1023.9 in WNW 6.4 mph 11.3 mph 90 % 0.0 in
21:52 1.8 °F 0.5 °F 1024.3 in WNW 6.4 mph 9.7 mph 91 % 0.0 in
21:57 1.7 °F 0.4 °F 1024.3 in NW 6.4 mph 8.0 mph 91 % 0.0 in
22:02 1.7 °F 0.4 °F 1023.9 in West 3.2 mph 8.0 mph 91 % 0.0 in
22:07 1.7 °F 0.4 °F 1024.3 in WNW 4.8 mph 8.0 mph 91 % 0.0 in
22:12 1.7 °F 0.4 °F 1023.9 in NW 4.8 mph 8.0 mph 91 % 0.0 in
22:17 1.7 °F 0.4 °F 1023.9 in WNW 6.4 mph 9.7 mph 91 % 0.0 in
22:22 1.7 °F 0.4 °F 1024.3 in WNW 8.0 mph 12.9 mph 91 % 0.0 in
22:32 1.6 °F 0.1 °F 1024.3 in WNW 1.6 mph 12.9 mph 90 % 0.0 in
22:37 1.6 °F 0.3 °F 1024.3 in WNW 1.6 mph 11.3 mph 91 % 0.0 in
22:42 1.6 °F 0.3 °F 1024.3 in WNW 4.8 mph 11.3 mph 91 % 0.0 in
22:47 1.6 °F 0.3 °F 1024.3 in WNW 3.2 mph 11.3 mph 91 % 0.0 in
22:52 1.5 °F 0.2 °F 1024.3 in NW 1.6 mph 11.3 mph 91 % 0.0 in
22:57 1.5 °F 0.2 °F 1024.3 in WNW 3.2 mph 8.0 mph 91 % 0.0 in
23:02 1.4 °F 0.1 °F 1024.3 in WNW 9.7 mph 9.7 mph 91 % 0.0 in
23:07 1.4 °F 0.1 °F 1024.3 in West 4.8 mph 9.7 mph 91 % 0.0 in
23:12 1.5 °F 0.2 °F 1024.3 in WNW 4.8 mph 9.7 mph 91 % 0.0 in
23:22 1.5 °F 0.2 °F 1024.6 in WNW 4.8 mph 9.7 mph 91 % 0.0 in
23:27 1.5 °F 0.2 °F 1024.6 in WNW 1.6 mph 9.7 mph 91 % 0.0 in
23:32 1.4 °F 0.1 °F 1024.9 in WNW 1.6 mph 9.7 mph 91 % 0.0 in
23:37 1.4 °F 0.1 °F 1024.9 in WNW 4.8 mph 9.7 mph 91 % 0.0 in
23:42 1.5 °F 0.2 °F 1024.9 in West 6.4 mph 12.9 mph 91 % 0.0 in
23:47 1.6 °F 0.3 °F 1024.6 in WNW 1.6 mph 12.9 mph 91 % 0.0 in
23:57 1.6 °F 0.3 °F 1024.6 in Calm   8.0 mph 91 % 0.0 in
Meteo18
Compliments of Weather Underground - 4 mb

Script developed by  Jim McMurry - jmcmurry@mwt.net Adapted for the template by  Wim van der Kuil - Leuven-Template.eu

You find our weather info also at:

European Weather Network

Weather Underground

Equipment we use:

Weather-station
Davis Vue

Weather-program
Meteobridge

Weather-server
Raspberry PI 2 B+

Provider
1 and 1

Davis Vue

Meteobridge

Raspberry PI 2 B+

1 and 1